Time;durP1;ratioP1;P1;durP2;ratioP2;P2;SDS_P1;SDS_P2;PMS_P1;PMS_P2;Temp;Humidity;BMP_temperature;BMP_pressure;BME280_temperature;BME280_humidity;BME280_pressure;Samples;Min_cycle;Max_cycle;Signal;HPM_P1;HPM_P2
2022/05/31 00:02:20;;;;;;;5.77;2.10;;;;;;;11.84;100.00;95745.78;5033927;28;20206;-86
2022/05/31 00:04:48;;;;;;;3.77;2.30;;;;;;;11.87;100.00;95751.53;5034988;28;20202;-87
2022/05/31 00:07:17;;;;;;;3.50;2.10;;;;;;;11.80;100.00;95742.78;5032566;28;20218;-87
2022/05/31 00:09:44;;;;;;;2.13;1.80;;;;;;;11.82;100.00;95739.84;5030828;28;20206;-87
2022/05/31 00:12:13;;;;;;;3.77;2.10;;;;;;;11.79;100.00;95738.44;5028542;28;20221;-87
2022/05/31 00:14:41;;;;;;;3.20;2.13;;;;;;;11.84;100.00;95749.31;5028893;28;20257;-87
2022/05/31 00:17:08;;;;;;;2.47;2.23;;;;;;;11.72;100.00;95735.09;5028684;28;20225;-87
2022/05/31 00:19:35;;;;;;;2.57;2.37;;;;;;;11.72;100.00;95737.78;5037440;28;20210;-88
2022/05/31 00:22:07;;;;;;;2.50;2.27;;;;;;;11.66;100.00;95736.06;5028139;28;20214;-87
2022/05/31 00:24:37;;;;;;;1.90;1.73;;;;;;;11.70;100.00;95737.22;5027146;28;20248;-87
2022/05/31 00:27:05;;;;;;;3.97;2.27;;;;;;;11.63;100.00;95739.31;5042167;28;20246;-86
2022/05/31 00:29:32;;;;;;;2.53;2.00;;;;;;;11.60;100.00;95742.50;5028308;28;20249;-87
2022/05/31 00:32:01;;;;;;;2.30;2.00;;;;;;;11.59;100.00;95732.75;5038498;28;20225;-87
2022/05/31 00:34:29;;;;;;;3.37;1.90;;;;;;;11.53;100.00;95720.25;5026961;28;20217;-86
2022/05/31 00:36:57;;;;;;;2.20;1.90;;;;;;;11.60;100.00;95739.78;5029989;28;20245;-87
2022/05/31 00:39:24;;;;;;;1.90;1.80;;;;;;;11.63;100.00;95736.59;5029089;28;20202;-87
2022/05/31 00:42:02;;;;;;;2.63;2.20;;;;;;;11.57;100.00;95748.44;5028794;28;20260;-86
2022/05/31 00:44:30;;;;;;;2.60;2.40;;;;;;;11.52;100.00;95740.22;5044350;28;20222;-87
2022/05/31 00:47:00;;;;;;;4.40;1.93;;;;;;;11.49;100.00;95743.44;5032861;28;20190;-86
2022/05/31 00:49:32;;;;;;;2.40;2.03;;;;;;;11.44;100.00;95730.69;5045583;28;20214;-89
2022/05/31 00:52:01;;;;;;;2.43;2.23;;;;;;;11.40;100.00;95742.25;5040759;28;20230;-87
2022/05/31 00:54:32;;;;;;;3.57;2.10;;;;;;;11.24;100.00;95733.91;5036358;28;20202;-87
2022/05/31 00:57:02;;;;;;;2.77;2.17;;;;;;;11.22;100.00;95732.53;5027497;28;20213;-87
2022/05/31 00:59:37;;;;;;;3.50;2.40;;;;;;;11.13;100.00;95739.44;5028264;28;20198;-86
2022/05/31 01:02:06;;;;;;;2.50;2.17;;;;;;;11.11;100.00;95739.69;5037912;28;20206;-88
2022/05/31 01:04:38;;;;;;;3.90;2.00;;;;;;;11.14;100.00;95741.91;5026489;28;20252;-86
2022/05/31 01:07:06;;;;;;;2.20;2.00;;;;;;;11.14;100.00;95750.00;5025910;28;20214;-87
2022/05/31 01:09:34;;;;;;;2.83;2.13;;;;;;;11.23;100.00;95756.59;5022874;28;20214;-85
2022/05/31 01:12:29;;;;;;;3.20;2.30;;;;;;;11.20;100.00;95757.09;5016595;28;20234;-84
2022/05/31 01:15:16;;;;;;;2.60;2.20;;;;;;;11.14;100.00;95752.72;5040251;28;20256;-87
2022/05/31 01:18:01;;;;;;;3.43;2.03;;;;;;;11.15;100.00;95757.00;5038476;28;20314;-86
2022/05/31 01:20:30;;;;;;;2.53;2.10;;;;;;;11.16;100.00;95755.13;5043703;28;20210;-88
2022/05/31 01:23:08;;;;;;;2.77;2.00;;;;;;;11.18;100.00;95753.00;5027381;28;20253;-86
2022/05/31 01:25:50;;;;;;;2.20;2.00;;;;;;;11.21;100.00;95742.53;5044867;28;20209;-87
2022/05/31 01:28:26;;;;;;;2.27;1.87;;;;;;;11.22;100.00;95754.97;5042230;28;20205;-87
2022/05/31 01:30:57;;;;;;;2.50;1.90;;;;;;;11.18;100.00;95747.59;5029520;28;20629;-87
2022/05/31 01:33:28;;;;;;;3.73;2.30;;;;;;;11.23;100.00;95751.19;5040351;28;20207;-86
2022/05/31 01:36:02;;;;;;;2.33;1.97;;;;;;;11.22;100.00;95754.16;5032369;28;20241;-87
2022/05/31 01:38:34;;;;;;;2.90;2.00;;;;;;;11.26;100.00;95766.91;5040189;28;20205;-88
2022/05/31 01:41:11;;;;;;;4.23;2.10;;;;;;;11.22;100.00;95764.97;5054879;28;20237;-87
2022/05/31 01:43:43;;;;;;;3.13;2.10;;;;;;;11.24;100.00;95763.63;5026492;28;20263;-84
2022/05/31 01:46:16;;;;;;;2.40;2.07;;;;;;;11.17;100.00;95754.06;5029994;28;20229;-87
2022/05/31 01:48:44;;;;;;;3.30;2.30;;;;;;;11.16;100.00;95763.25;5021574;28;20206;-87
2022/05/31 01:51:13;;;;;;;2.20;2.10;;;;;;;11.15;100.00;95761.59;5028524;28;20196;-87
2022/05/31 01:53:41;;;;;;;2.63;2.27;;;;;;;11.02;100.00;95754.69;5037376;28;20253;-87
2022/05/31 01:56:11;;;;;;;2.43;2.23;;;;;;;10.98;100.00;95748.13;5030359;28;20214;-87
2022/05/31 01:58:41;;;;;;;4.23;2.37;;;;;;;10.91;100.00;95752.88;5030953;28;20213;-86
2022/05/31 02:01:10;;;;;;;2.87;2.50;;;;;;;10.95;100.00;95759.44;5026089;28;20206;-87
2022/05/31 02:03:40;;;;;;;3.90;2.40;;;;;;;10.89;100.00;95757.69;5027618;28;20301;-87
2022/05/31 02:06:28;;;;;;;2.60;2.10;;;;;;;10.91;100.00;95763.69;5041781;28;20211;-87
2022/05/31 02:08:57;;;;;;;2.97;2.03;;;;;;;10.84;100.00;95763.03;5041862;28;20213;-87
2022/05/31 02:11:25;;;;;;;2.50;2.30;;;;;;;10.84;100.00;95768.44;5034546;28;20195;-86
2022/05/31 02:13:58;;;;;;;2.47;2.23;;;;;;;10.83;100.00;95762.22;5026307;28;20202;-88
2022/05/31 02:16:27;;;;;;;2.90;2.43;;;;;;;10.84;100.00;95773.84;5043521;28;20221;-87
2022/05/31 02:19:23;;;;;;;2.43;2.20;;;;;;;10.81;100.00;95771.59;5044207;28;20202;-87
2022/05/31 02:22:07;;;;;;;3.27;1.93;;;;;;;10.85;100.00;95781.69;5033142;28;20206;-86
2022/05/31 02:24:35;;;;;;;2.77;2.27;;;;;;;10.84;100.00;95781.94;5032654;28;20260;-86
2022/05/31 02:27:03;;;;;;;3.00;2.53;;;;;;;10.74;100.00;95790.69;5046416;28;20294;-87
2022/05/31 02:29:33;;;;;;;2.23;2.03;;;;;;;10.63;100.00;95793.47;5033443;28;20206;-87
2022/05/31 02:32:01;;;;;;;2.50;2.30;;;;;;;10.68;100.00;95788.97;5044663;28;20285;-86
2022/05/31 02:34:32;;;;;;;3.03;2.30;;;;;;;10.65;100.00;95777.81;5028970;28;20218;-87
2022/05/31 02:37:00;;;;;;;3.07;2.77;;;;;;;10.72;100.00;95800.91;5030414;28;20252;-87
2022/05/31 02:39:28;;;;;;;2.57;2.30;;;;;;;10.71;100.00;95798.47;5024584;28;20214;-86
2022/05/31 02:41:56;;;;;;;2.30;2.10;;;;;;;10.75;100.00;95803.13;5047787;28;20208;-84
2022/05/31 02:44:25;;;;;;;2.30;2.10;;;;;;;10.76;100.00;95810.16;5024734;28;20290;-86
2022/05/31 02:46:52;;;;;;;4.20;2.23;;;;;;;10.58;100.00;95811.22;5047415;28;20213;-87
2022/05/31 02:49:20;;;;;;;3.00;2.00;;;;;;;10.50;100.00;95803.50;5031086;28;20206;-86
2022/05/31 02:51:48;;;;;;;2.80;2.00;;;;;;;10.54;100.00;95795.75;5046160;28;20226;-87
2022/05/31 02:54:18;;;;;;;3.23;2.30;;;;;;;10.55;100.00;95798.19;5048498;28;20245;-86
2022/05/31 02:57:06;;;;;;;2.43;2.13;;;;;;;10.59;100.00;95795.84;5044104;28;20378;-87
2022/05/31 02:59:51;;;;;;;2.20;2.00;;;;;;;10.66;100.00;95803.75;5048755;28;20209;-87
2022/05/31 03:02:37;;;;;;;3.10;2.43;;;;;;;10.66;100.00;95798.38;5051137;28;20225;-86
2022/05/31 03:05:23;;;;;;;2.83;2.50;;;;;;;10.59;100.00;95791.25;5051328;28;20240;-88
2022/05/31 03:07:50;;;;;;;2.97;2.53;;;;;;;10.66;100.00;95792.97;5046704;28;20340;-85
2022/05/31 03:10:20;;;;;;;2.70;2.33;;;;;;;10.71;100.00;95787.66;5023469;28;20211;-86
2022/05/31 03:12:50;;;;;;;2.33;2.13;;;;;;;10.71;100.00;95784.97;5042643;28;20280;-87
2022/05/31 03:15:20;;;;;;;2.60;2.00;;;;;;;10.70;100.00;95788.72;5024593;28;20288;-86
2022/05/31 03:17:52;;;;;;;2.93;2.00;;;;;;;10.64;100.00;95777.00;5035096;28;20216;-86
2022/05/31 03:20:23;;;;;;;2.20;2.00;;;;;;;10.79;100.00;95792.66;5045288;28;20213;-86
2022/05/31 03:22:56;;;;;;;2.23;2.00;;;;;;;10.91;100.00;95785.28;5044122;28;20273;-87
2022/05/31 03:25:25;;;;;;;2.40;1.80;;;;;;;11.24;100.00;95790.66;5020754;28;20209;-87
2022/05/31 03:27:58;;;;;;;2.50;1.83;;;;;;;11.46;99.01;95785.31;5043223;28;20191;-87
2022/05/31 03:30:25;;;;;;;1.90;1.70;;;;;;;11.73;95.94;95783.53;5044548;28;20206;-88
2022/05/31 03:32:54;;;;;;;3.53;1.90;;;;;;;11.95;92.47;95786.25;5027355;28;20214;-86
2022/05/31 03:35:21;;;;;;;2.17;1.83;;;;;;;12.04;91.47;95778.50;5042388;28;20213;-87
2022/05/31 03:37:49;;;;;;;2.83;1.83;;;;;;;12.18;88.87;95781.63;5029723;28;20205;-86
2022/05/31 03:43:25;;;;;;;2.30;2.07;;;;;;;12.38;90.70;95782.66;5023631;28;20206;-87
2022/05/31 03:46:12;;;;;;;2.17;1.97;;;;;;;12.19;93.94;95780.56;5047770;28;20221;-87
2022/05/31 03:48:52;;;;;;;4.57;2.07;;;;;;;12.04;93.63;95779.31;5022096;28;20233;-87
2022/05/31 03:51:19;;;;;;;2.23;2.03;;;;;;;11.93;95.36;95776.75;5029789;28;20217;-86
2022/05/31 03:53:48;;;;;;;3.17;1.87;;;;;;;11.91;93.08;95778.91;5036988;28;20303;-86
2022/05/31 03:56:19;;;;;;;1.90;1.80;;;;;;;11.98;93.35;95783.03;5023561;28;20213;-86
2022/05/31 03:58:48;;;;;;;2.53;1.97;;;;;;;12.07;93.83;95786.94;5025261;28;20225;-86
2022/05/31 04:01:19;;;;;;;2.93;1.90;;;;;;;12.11;89.56;95765.59;5028936;28;20203;-87
2022/05/31 04:03:47;;;;;;;2.10;1.73;;;;;;;12.27;88.31;95783.63;5031177;28;20286;-87
2022/05/31 04:06:15;;;;;;;2.77;1.87;;;;;;;12.30;87.80;95768.78;5044458;28;20297;-87
2022/05/31 04:08:44;;;;;;;2.30;1.50;;;;;;;12.51;89.77;95781.44;5047591;28;20195;-85
2022/05/31 04:11:12;;;;;;;2.47;1.63;;;;;;;12.56;88.29;95773.38;5044482;28;20289;-87
2022/05/31 04:13:39;;;;;;;2.33;1.60;;;;;;;12.65;84.92;95773.72;5038876;28;20222;-86
2022/05/31 04:16:27;;;;;;;2.47;1.80;;;;;;;12.81;82.48;95778.19;5044214;28;20237;-86
2022/05/31 04:18:57;;;;;;;2.43;1.90;;;;;;;12.93;80.56;95784.25;5044423;28;20293;-87
2022/05/31 04:21:25;;;;;;;2.50;1.50;;;;;;;13.22;77.96;95784.78;5052381;28;20256;-86
2022/05/31 04:24:08;;;;;;;1.90;1.67;;;;;;;13.32;78.54;95784.84;5035346;28;20247;-86
2022/05/31 04:26:42;;;;;;;2.03;1.50;;;;;;;13.38;78.13;95789.22;5056526;28;20202;-87
2022/05/31 04:29:28;;;;;;;1.97;1.40;;;;;;;13.37;78.85;95787.59;5040826;28;20209;-86
2022/05/31 04:32:31;;;;;;;2.27;1.67;;;;;;;13.44;77.19;95799.03;5051381;28;20240;-87
2022/05/31 04:35:08;;;;;;;2.03;1.83;;;;;;;13.60;76.47;95794.53;5019000;28;20264;-87
2022/05/31 04:37:36;;;;;;;2.03;1.70;;;;;;;13.69;76.18;95806.53;5038747;28;20203;-87
2022/05/31 04:40:04;;;;;;;2.27;1.73;;;;;;;13.74;75.87;95803.00;5043837;28;20230;-87
2022/05/31 04:42:57;;;;;;;1.80;1.70;;;;;;;13.82;75.09;95797.06;5045653;28;20296;-87
2022/05/31 04:45:43;;;;;;;4.30;1.70;;;;;;;13.86;75.06;95803.63;5034092;28;20217;-86
2022/05/31 04:48:44;;;;;;;1.90;1.70;;;;;;;13.92;74.40;95806.09;5026929;28;20243;-85
2022/05/31 04:51:12;;;;;;;2.23;1.40;;;;;;;14.00;71.87;95808.31;5031238;28;20210;-86
2022/05/31 04:53:48;;;;;;;2.13;1.60;;;;;;;14.08;73.55;95808.88;5024103;28;20318;-88
2022/05/31 04:56:26;;;;;;;4.83;1.67;;;;;;;14.03;73.43;95802.31;5030645;28;20255;-88
2022/05/31 04:58:57;;;;;;;2.80;1.57;;;;;;;14.11;73.06;95808.34;5028994;28;20217;-87
2022/05/31 05:01:25;;;;;;;2.90;1.77;;;;;;;14.13;73.17;95801.56;5029205;28;20216;-88
2022/05/31 05:03:57;;;;;;;1.50;1.40;;;;;;;14.14;74.60;95807.81;5039976;28;20270;-87
2022/05/31 05:06:25;;;;;;;1.57;1.47;;;;;;;14.11;73.88;95801.03;5029636;28;20205;-87
2022/05/31 05:08:55;;;;;;;3.40;1.70;;;;;;;14.25;73.25;95799.44;5032423;28;20289;-88
2022/05/31 05:11:24;;;;;;;2.60;1.40;;;;;;;14.31;72.86;95798.34;5028749;28;20225;-86
2022/05/31 05:13:57;;;;;;;2.43;1.57;;;;;;;14.37;71.46;95796.50;5045098;28;20302;-87
2022/05/31 05:16:58;;;;;;;2.40;1.53;;;;;;;14.48;71.25;95791.91;5034850;28;20213;-88
2022/05/31 05:19:26;;;;;;;2.07;1.50;;;;;;;14.50;71.61;95787.84;5026750;28;20210;-87
2022/05/31 05:21:58;;;;;;;1.63;1.30;;;;;;;14.56;71.36;95785.97;5020434;28;20230;-86
2022/05/31 05:24:26;;;;;;;3.40;1.43;;;;;;;14.51;71.77;95777.81;5038533;28;20347;-87
2022/05/31 05:27:14;;;;;;;1.50;1.30;;;;;;;14.62;70.64;95776.75;5044503;28;20199;-86
2022/05/31 05:32:53;;;;;;;1.60;1.50;;;;;;;14.70;70.64;95771.59;5041283;28;20221;-87
2022/05/31 05:35:30;;;;;;;2.27;1.47;;;;;;;14.86;68.29;95763.44;5035362;28;20294;-88
2022/05/31 05:38:13;;;;;;;2.37;1.60;;;;;;;15.01;67.80;95763.44;5023896;28;20207;-87
2022/05/31 05:40:58;;;;;;;3.20;1.77;;;;;;;15.23;64.40;95771.31;5045013;28;20237;-86
2022/05/31 05:43:43;;;;;;;2.23;1.50;;;;;;;15.37;64.48;95761.53;5029821;28;20317;-86
2022/05/31 05:46:17;;;;;;;2.50;1.40;;;;;;;15.39;65.02;95759.34;5028980;28;20264;-86
2022/05/31 05:48:45;;;;;;;3.27;1.43;;;;;;;15.44;63.82;95754.69;5029155;28;20215;-86
2022/05/31 05:51:16;;;;;;;3.73;1.43;;;;;;;15.82;60.28;95766.88;5025225;28;20202;-86
2022/05/31 05:54:09;;;;;;;1.97;1.53;;;;;;;16.27;56.96;95754.97;5015239;28;20303;-85
2022/05/31 05:56:56;;;;;;;1.70;1.37;;;;;;;16.19;60.72;95768.38;5053731;28;20202;-86
2022/05/31 05:59:41;;;;;;;1.73;1.40;;;;;;;16.45;54.96;95760.88;5043548;28;20391;-86
2022/05/31 06:02:31;;;;;;;2.13;1.53;;;;;;;16.79;53.71;95771.88;5048078;28;20259;-86
2022/05/31 06:05:17;;;;;;;1.53;1.40;;;;;;;16.58;58.30;95771.97;5025271;28;20762;-86
2022/05/31 06:07:50;;;;;;;1.53;1.43;;;;;;;16.82;54.72;95765.84;5038185;28;20206;-86
2022/05/31 06:10:21;;;;;;;1.50;1.30;;;;;;;16.95;56.43;95765.19;5015306;28;20205;-84
2022/05/31 06:12:53;;;;;;;1.50;1.40;;;;;;;17.07;53.36;95759.38;5026671;28;20218;-86
2022/05/31 06:15:24;;;;;;;1.60;1.30;;;;;;;17.25;53.07;95754.06;5034215;28;20209;-86
2022/05/31 06:17:54;;;;;;;1.70;1.43;;;;;;;17.36;51.85;95754.75;5023641;28;20210;-86
2022/05/31 06:20:22;;;;;;;3.53;1.70;;;;;;;17.43;53.26;95749.78;5029583;28;20213;-86
2022/05/31 06:22:51;;;;;;;2.03;1.50;;;;;;;17.65;50.05;95758.31;5022613;28;20207;-86
2022/05/31 06:25:21;;;;;;;1.50;1.40;;;;;;;17.77;49.93;95758.75;5041439;28;20220;-86
2022/05/31 06:28:09;;;;;;;2.93;1.30;;;;;;;17.94;48.69;95760.19;5041390;28;20294;-88
2022/05/31 06:30:37;;;;;;;1.67;1.40;;;;;;;17.97;49.33;95760.41;5034121;28;20226;-87
2022/05/31 06:33:06;;;;;;;1.40;1.30;;;;;;;18.02;48.51;95771.31;5041980;28;20222;-86
2022/05/31 06:35:33;;;;;;;1.70;1.30;;;;;;;18.25;47.37;95771.56;5038252;28;20205;-86
2022/05/31 06:38:05;;;;;;;2.47;1.60;;;;;;;18.26;48.19;95754.88;5032605;28;20233;-87
2022/05/31 06:40:32;;;;;;;1.70;1.60;;;;;;;18.22;47.61;95755.75;5019760;28;20229;-87
2022/05/31 06:43:12;;;;;;;2.10;1.40;;;;;;;18.22;48.09;95764.75;5036099;28;20190;-87
2022/05/31 06:45:57;;;;;;;3.10;1.53;;;;;;;18.12;47.40;95762.97;5042254;28;20206;-87
2022/05/31 06:48:43;;;;;;;3.77;1.57;;;;;;;18.35;46.19;95753.13;5042618;28;20347;-86
2022/05/31 06:56:47;;;;;;;1.40;1.30;;;;;;;18.48;46.01;95754.31;5044147;28;20238;-87
2022/05/31 06:57:31;;;;;;;1.37;1.27;;;;;;;18.51;45.81;95753.72;5044836;28;20197;-87
2022/05/31 07:00:12;;;;;;;1.73;1.30;;;;;;;18.51;45.74;95759.19;5040288;28;20213;-87
2022/05/31 07:02:39;;;;;;;1.70;1.50;;;;;;;18.49;45.71;95745.81;5023333;28;20264;-88
2022/05/31 07:05:07;;;;;;;2.20;1.30;;;;;;;18.67;44.85;95751.59;5024597;28;20222;-87
2022/05/31 07:07:35;;;;;;;2.73;1.23;;;;;;;18.63;46.46;95748.66;5042885;28;20237;-87
2022/05/31 07:10:35;;;;;;;2.03;1.83;;;;;;;18.74;45.04;95749.31;5041662;28;20257;-88
2022/05/31 07:13:28;;;;;;;2.47;1.50;;;;;;;19.02;44.63;95747.53;5022653;28;20222;-88
2022/05/31 07:16:01;;;;;;;1.50;1.40;;;;;;;19.42;46.54;95746.84;5046374;28;20230;-87
2022/05/31 07:18:49;;;;;;;1.30;1.20;;;;;;;19.67;44.17;95742.03;5055580;28;20224;-87
2022/05/31 07:21:16;;;;;;;1.87;1.30;;;;;;;20.01;41.79;95742.47;5031355;28;20202;-87
2022/05/31 07:23:43;;;;;;;2.47;1.35;;;;;;;20.19;41.87;95744.28;5033992;28;20217;-86
2022/05/31 07:26:13;;;;;;;2.20;1.38;;;;;;;20.34;41.81;95729.47;5031531;28;20203;-87
2022/05/31 07:28:40;;;;;;;1.50;1.40;;;;;;;20.51;41.99;95734.31;5031890;28;20209;-87
2022/05/31 07:31:08;;;;;;;2.05;1.40;;;;;;;20.61;42.06;95728.59;5028245;28;20214;-87
2022/05/31 07:33:48;;;;;;;2.67;1.58;;;;;;;20.62;41.97;95716.53;5030821;28;20238;-87
2022/05/31 07:36:15;;;;;;;1.75;1.40;;;;;;;20.71;40.47;95737.44;5023690;28;20210;-87
2022/05/31 07:39:02;;;;;;;1.45;1.35;;;;;;;20.94;40.56;95721.78;5039546;28;20210;-87
2022/05/31 07:41:32;;;;;;;1.75;1.50;;;;;;;21.13;41.70;95711.44;5036112;28;20241;-87
2022/05/31 07:44:01;;;;;;;1.40;1.30;;;;;;;21.27;40.83;95714.13;5044233;28;20202;-87
2022/05/31 07:46:29;;;;;;;3.40;1.30;;;;;;;21.12;40.66;95709.00;5033853;28;20213;-87
2022/05/31 07:48:58;;;;;;;1.85;1.30;;;;;;;21.23;40.67;95704.13;5043613;28;20269;-87
2022/05/31 07:51:45;;;;;;;1.70;1.30;;;;;;;21.33;38.96;95707.41;5032743;28;20209;-87
2022/05/31 07:54:33;;;;;;;2.20;1.30;;;;;;;21.43;39.91;95712.66;5046299;28;20221;-88
2022/05/31 08:00:32;;;;;;;1.45;1.30;;;;;;;21.64;38.26;95696.41;4989206;28;20236;-88
2022/05/31 08:02:59;;;;;;;1.92;1.50;;;;;;;21.73;40.81;95682.72;4972450;28;20311;-88
2022/05/31 08:05:26;;;;;;;1.30;1.10;;;;;;;21.63;40.19;95689.31;5005153;28;20251;-88
2022/05/31 08:07:54;;;;;;;1.60;1.27;;;;;;;21.53;41.03;95689.56;5032185;28;20221;-88
2022/05/31 08:10:21;;;;;;;1.88;1.27;;;;;;;21.17;40.36;95692.47;5019392;28;20198;-87
2022/05/31 08:12:50;;;;;;;1.65;1.20;;;;;;;21.06;40.71;95689.13;5032595;28;20236;-87
2022/05/31 08:15:17;;;;;;;1.85;1.30;;;;;;;20.98;40.23;95698.09;5031241;28;20300;-87
2022/05/31 08:17:46;;;;;;;1.80;1.25;;;;;;;20.92;41.02;95691.13;5038423;28;20206;-88
2022/05/31 08:20:16;;;;;;;3.83;1.40;;;;;;;20.75;41.64;95696.47;5028221;28;20233;-88
2022/05/31 08:22:44;;;;;;;1.73;1.40;;;;;;;20.65;41.55;95700.28;5047285;28;20216;-89
2022/05/31 08:25:12;;;;;;;2.45;1.30;;;;;;;20.58;46.40;95697.16;5043803;28;20302;-87
2022/05/31 08:27:40;;;;;;;5.85;1.80;;;;;;;20.43;48.45;95704.88;5035005;28;20221;-87
2022/05/31 08:30:09;;;;;;;3.30;1.67;;;;;;;20.14;53.06;95697.00;5036453;28;20213;-87
2022/05/31 08:32:37;;;;;;;3.72;1.67;;;;;;;19.78;56.54;95685.94;5036929;28;20205;-88
2022/05/31 08:35:06;;;;;;;4.68;1.75;;;;;;;19.48;56.97;95687.38;5044921;28;20272;-88
2022/05/31 08:37:33;;;;;;;2.25;1.90;;;;;;;19.41;57.39;95687.72;5057233;28;20218;-88
2022/05/31 08:40:00;;;;;;;1.80;1.70;;;;;;;19.27;57.19;95689.63;5021059;28;20234;-88
2022/05/31 08:42:38;;;;;;;1.92;1.60;;;;;;;19.51;57.40;95687.56;5024471;28;20237;-88
2022/05/31 08:45:13;;;;;;;2.63;1.40;;;;;;;19.82;56.95;95695.19;5040105;28;20205;-89
2022/05/31 08:47:45;;;;;;;1.90;1.70;;;;;;;19.97;56.30;95692.16;5026443;28;20201;-88
2022/05/31 08:53:19;;;;;;;2.58;1.60;;;;;;;20.39;56.96;95700.03;5039884;28;20289;-86
2022/05/31 08:58:44;;;;;;;4.05;2.00;;;;;;;20.78;56.22;95696.66;5024848;28;20207;-87
2022/05/31 09:01:19;;;;;;;4.05;1.75;;;;;;;21.20;54.82;95699.22;5027211;28;20198;-87
2022/05/31 09:03:50;;;;;;;2.85;1.90;;;;;;;21.05;53.24;95703.16;5042738;28;20206;-87
2022/05/31 09:06:22;;;;;;;2.80;1.70;;;;;;;21.14;54.85;95690.28;5024348;28;20260;-86
2022/05/31 09:08:58;;;;;;;1.60;1.50;;;;;;;21.26;52.84;95687.03;5031401;28;20198;-87
2022/05/31 09:11:30;;;;;;;2.03;1.50;;;;;;;21.44;51.50;95707.94;5039545;28;20214;-88
2022/05/31 09:14:06;;;;;;;2.42;1.58;;;;;;;21.41;50.13;95701.16;5031181;28;20560;-87
2022/05/31 09:16:45;;;;;;;2.78;1.85;;;;;;;21.26;51.48;95706.25;5044966;28;20275;-87
2022/05/31 09:19:17;;;;;;;2.08;1.58;;;;;;;21.22;50.49;95702.50;5019931;28;20293;-87
2022/05/31 09:21:47;;;;;;;2.92;1.60;;;;;;;21.00;49.89;95711.53;5025499;28;20209;-87
2022/05/31 09:24:16;;;;;;;7.88;2.00;;;;;;;20.88;49.96;95706.59;5024967;28;20202;-87
2022/05/31 09:27:08;;;;;;;2.40;1.80;;;;;;;20.84;49.60;95711.06;5022992;28;20195;-88
2022/05/31 09:30:01;;;;;;;2.58;1.52;;;;;;;20.78;48.55;95701.31;5029497;28;20218;-88
2022/05/31 09:32:44;;;;;;;2.78;1.58;;;;;;;20.83;49.25;95705.91;5037604;28;20206;-87
2022/05/31 09:35:24;;;;;;;3.55;1.42;;;;;;;20.86;48.67;95699.78;5026719;28;20233;-87
2022/05/31 09:38:08;;;;;;;3.05;1.73;;;;;;;20.96;47.86;95694.84;5041576;28;20273;-86
2022/05/31 09:40:43;;;;;;;3.22;1.70;;;;;;;21.19;48.26;95708.59;5034633;28;20233;-87
2022/05/31 09:43:19;;;;;;;2.55;1.55;;;;;;;21.15;46.76;95700.97;5034099;28;20263;-87
2022/05/31 09:45:55;;;;;;;3.33;2.00;;;;;;;21.35;46.94;95715.34;5025669;28;20256;-87
2022/05/31 09:48:24;;;;;;;4.63;1.80;;;;;;;21.31;47.05;95706.09;5030033;28;20297;-86
2022/05/31 09:50:56;;;;;;;3.40;2.05;;;;;;;21.39;47.15;95708.91;5027998;28;20206;-87
2022/05/31 09:59:25;;;;;;;2.55;1.83;;;;;;;21.63;45.07;95700.28;5043316;28;20267;-86
2022/05/31 10:02:32;;;;;;;3.10;1.65;;;;;;;21.48;45.82;95715.25;5008361;28;20272;-87
2022/05/31 10:05:16;;;;;;;4.15;2.28;;;;;;;21.45;47.31;95732.34;5022028;28;20207;-87
2022/05/31 10:07:44;;;;;;;2.65;1.77;;;;;;;21.58;46.94;95716.94;5019308;28;20210;-86
2022/05/31 10:10:15;;;;;;;2.95;1.90;;;;;;;21.63;47.73;95716.78;5040704;28;20245;-87
2022/05/31 10:12:51;;;;;;;5.20;2.03;;;;;;;21.77;48.11;95712.00;5032328;28;20217;-86
2022/05/31 10:15:37;;;;;;;3.40;2.20;;;;;;;21.99;47.67;95719.41;5024315;28;20249;-87
2022/05/31 10:18:07;;;;;;;5.45;1.90;;;;;;;21.95;47.33;95720.34;5038691;28;20221;-87
2022/05/31 10:20:41;;;;;;;3.88;1.75;;;;;;;21.87;46.83;95721.91;5025967;28;20214;-86
2022/05/31 10:23:13;;;;;;;1.83;1.63;;;;;;;22.03;47.57;95717.63;5012347;28;20206;-86
2022/05/31 10:26:00;;;;;;;5.35;1.80;;;;;;;22.14;46.55;95723.66;5047452;28;20312;-87
2022/05/31 10:28:53;;;;;;;3.25;1.88;;;;;;;22.23;45.87;95724.47;5046962;28;20228;-87
2022/05/31 10:31:33;;;;;;;4.50;2.15;;;;;;;22.16;46.20;95729.63;5045758;28;20195;-87
2022/05/31 10:34:02;;;;;;;3.45;1.73;;;;;;;22.30;46.81;95730.31;5023869;28;20209;-87
2022/05/31 10:36:34;;;;;;;2.45;1.80;;;;;;;22.13;45.98;95742.06;5044776;28;20209;-86
2022/05/31 10:39:10;;;;;;;3.75;1.80;;;;;;;22.13;47.26;95742.06;5026591;28;20252;-87
2022/05/31 10:41:40;;;;;;;2.67;1.90;;;;;;;22.03;46.34;95736.09;5031701;28;20323;-83
2022/05/31 10:44:17;;;;;;;3.28;1.70;;;;;;;22.09;47.51;95745.78;5046507;28;20211;-87
2022/05/31 10:46:49;;;;;;;3.92;2.35;;;;;;;22.13;48.13;95752.25;5041543;28;20206;-82
2022/05/31 10:49:18;;;;;;;2.85;1.70;;;;;;;21.97;49.35;95753.78;5045566;28;20234;-83
2022/05/31 10:51:57;;;;;;;2.38;1.95;;;;;;;21.81;49.35;95762.47;5031331;28;20204;-83
2022/05/31 10:54:44;;;;;;;5.63;2.10;;;;;;;21.68;49.21;95768.88;5043885;28;20240;-83
2022/05/31 10:57:23;;;;;;;2.70;1.75;;;;;;;21.52;50.11;95775.88;5023452;28;20273;-83
2022/05/31 10:59:55;;;;;;;3.10;2.13;;;;;;;21.55;51.25;95774.41;5039791;28;20202;-82
2022/05/31 11:03:00;;;;;;;2.97;1.98;;;;;;;21.54;52.09;95784.59;5026904;28;20209;-83
2022/05/31 11:05:36;;;;;;;3.22;1.77;;;;;;;21.58;51.79;95779.28;4992953;28;20214;-82
2022/05/31 11:11:31;;;;;;;2.50;2.25;;;;;;;21.56;52.79;95779.59;5046572;28;20198;-83
2022/05/31 11:14:22;;;;;;;5.25;2.90;;;;;;;21.62;53.40;95785.78;5028410;28;20234;-83
2022/05/31 11:17:05;;;;;;;5.78;2.42;;;;;;;21.74;52.79;95794.25;5031803;28;20241;-83
2022/05/31 11:19:40;;;;;;;4.57;2.20;;;;;;;21.78;51.72;95793.31;5020693;28;20199;-84
2022/05/31 11:22:35;;;;;;;5.10;2.30;;;;;;;21.82;51.36;95791.56;5043506;28;20296;-83
2022/05/31 11:25:33;;;;;;;6.18;2.65;;;;;;;21.82;51.98;95794.31;5026734;28;20214;-82
2022/05/31 11:28:17;;;;;;;5.18;2.35;;;;;;;21.69;53.05;95792.44;5016495;28;20217;-83
2022/05/31 11:31:01;;;;;;;2.58;2.28;;;;;;;21.55;53.93;95808.19;5027928;28;20311;-83
2022/05/31 11:33:41;;;;;;;5.00;2.50;;;;;;;21.51;55.42;95810.78;5017707;28;20214;-83
2022/05/31 11:36:18;;;;;;;3.08;2.45;;;;;;;21.47;53.90;95819.94;5042196;28;20218;-83
2022/05/31 11:38:56;;;;;;;3.28;2.67;;;;;;;21.31;54.93;95824.19;5028447;28;20228;-83
2022/05/31 11:41:35;;;;;;;7.07;2.70;;;;;;;21.24;57.14;95823.81;5016607;28;20229;-84
2022/05/31 11:44:27;;;;;;;4.78;2.63;;;;;;;21.12;59.13;95813.31;5039883;28;20225;-85
2022/05/31 11:47:02;;;;;;;5.38;2.20;;;;;;;21.09;59.30;95834.00;5027429;28;20309;-84
2022/05/31 11:49:38;;;;;;;5.38;2.22;;;;;;;20.90;59.42;95836.06;5042788;28;20260;-85
2022/05/31 11:52:19;;;;;;;6.45;2.33;;;;;;;20.92;61.02;95844.00;5028478;28;20209;-85
2022/05/31 11:57:55;;;;;;;2.45;2.22;;;;;;;20.78;59.88;95835.78;5047571;28;20210;-86
2022/05/31 12:00:23;;;;;;;5.45;2.42;;;;;;;20.64;60.73;95844.03;5038070;28;20305;-85
2022/05/31 12:02:56;;;;;;;5.07;2.30;;;;;;;20.59;61.94;95851.53;5026680;28;20198;-86
2022/05/31 12:05:29;;;;;;;4.75;2.60;;;;;;;20.65;61.01;95853.06;5043053;28;20314;-84
2022/05/31 12:08:05;;;;;;;5.45;2.95;;;;;;;20.65;62.26;95845.66;5026603;28;20206;-86
2022/05/31 12:10:40;;;;;;;4.05;2.40;;;;;;;20.66;62.41;95843.72;5021057;28;20301;-87
2022/05/31 12:13:10;;;;;;;3.97;2.38;;;;;;;20.73;61.20;95842.19;5043388;28;20289;-86
2022/05/31 12:15:42;;;;;;;3.40;2.50;;;;;;;20.72;60.97;95850.72;5028154;28;20316;-86
2022/05/31 12:18:18;;;;;;;4.65;2.17;;;;;;;20.69;60.44;95832.94;5041073;28;20213;-86
2022/05/31 12:20:54;;;;;;;3.03;2.22;;;;;;;20.77;59.54;95842.38;5041977;28;20225;-86
2022/05/31 12:23:32;;;;;;;4.25;2.15;;;;;;;20.83;60.18;95846.66;5042807;28;20210;-85
2022/05/31 12:26:02;;;;;;;7.18;2.35;;;;;;;20.83;59.90;95846.66;5029101;28;20209;-84
2022/05/31 12:28:47;;;;;;;4.40;2.20;;;;;;;20.76;60.40;95854.47;5029439;28;20237;-86
2022/05/31 12:31:22;;;;;;;2.28;2.03;;;;;;;20.74;60.06;95851.22;5028620;28;20206;-86
2022/05/31 12:33:49;;;;;;;3.20;2.15;;;;;;;20.67;59.53;95861.81;5029187;28;20296;-85
2022/05/31 12:36:18;;;;;;;2.70;2.15;;;;;;;20.56;59.40;95852.16;5029030;28;20260;-85
2022/05/31 12:39:01;;;;;;;3.28;2.25;;;;;;;20.51;59.39;95857.72;5027270;28;20220;-87